createdAt,value
2022-12-08T00:00:55.361Z,996.1
2022-12-08T00:01:56.595Z,996.1
2022-12-08T00:02:58.603Z,996.1
2022-12-08T00:04:00.418Z,996.2
2022-12-08T00:05:02.818Z,996.2
2022-12-08T00:06:04.698Z,996.1
2022-12-08T00:07:06.422Z,996.1
2022-12-08T00:08:08.440Z,996.1
2022-12-08T00:09:10.842Z,996.1
2022-12-08T00:10:40.161Z,996.2
2022-12-08T00:11:14.426Z,996.1
2022-12-08T00:12:16.358Z,996.2
2022-12-08T00:13:17.402Z,996.1
2022-12-08T00:14:19.404Z,996.1
2022-12-08T00:15:20.360Z,996.1
2022-12-08T00:16:21.531Z,996.1
2022-12-08T00:17:23.358Z,996.1
2022-12-08T00:18:24.418Z,996.1
2022-12-08T00:19:25.359Z,996.1
2022-12-08T00:20:26.339Z,996.1
2022-12-08T00:21:27.398Z,996.1
2022-12-08T00:22:28.378Z,996.1
2022-12-08T00:23:29.467Z,996.1
2022-12-08T00:24:31.386Z,996.1
2022-12-08T00:25:32.540Z,996.1
2022-12-08T00:26:34.338Z,996.1
2022-12-08T00:27:35.359Z,996.1
2022-12-08T00:28:36.417Z,996
2022-12-08T00:29:38.489Z,996
2022-12-08T00:30:39.378Z,996
2022-12-08T00:31:41.459Z,996
2022-12-08T00:32:43.360Z,996
2022-12-08T00:33:45.501Z,996
2022-12-08T00:34:47.371Z,996
2022-12-08T00:35:48.439Z,996
2022-12-08T00:36:50.319Z,996.1
2022-12-08T00:37:53.105Z,996
2022-12-08T00:38:53.419Z,996.1
2022-12-08T00:39:55.380Z,996.1
2022-12-08T00:40:56.378Z,996.1
2022-12-08T00:41:57.379Z,996.1
2022-12-08T00:42:58.416Z,996.1
2022-12-08T00:44:00.478Z,996.1
2022-12-08T00:45:02.527Z,996.1
2022-12-08T00:46:04.508Z,996.1
2022-12-08T00:47:06.461Z,996.1
2022-12-08T00:48:08.399Z,996.2
2022-12-08T00:49:10.638Z,996.2
2022-12-08T00:50:12.461Z,996.3
2022-12-08T00:51:14.430Z,996.2
2022-12-08T00:52:16.333Z,996.3
2022-12-08T00:53:17.399Z,996.2
2022-12-08T00:54:18.448Z,996.2
2022-12-08T00:55:20.459Z,996.2
2022-12-08T00:56:22.378Z,996.2
2022-12-08T00:57:23.418Z,996.1
2022-12-08T00:58:25.379Z,996.1
2022-12-08T00:59:27.652Z,996.2
2022-12-08T01:00:29.546Z,996.1
2022-12-08T01:01:31.422Z,996.1
2022-12-08T01:02:32.358Z,996.1
2022-12-08T01:03:33.390Z,996.1
2022-12-08T01:04:34.371Z,996.1
2022-12-08T01:05:35.438Z,996.2
2022-12-08T01:06:36.420Z,996.2
2022-12-08T01:07:37.439Z,996.2
2022-12-08T01:08:38.518Z,996.2
2022-12-08T01:09:40.457Z,996.2
2022-12-08T01:10:42.559Z,996.1
2022-12-08T01:11:44.407Z,996.2
2022-12-08T01:12:46.474Z,996.2
2022-12-08T01:13:48.498Z,996.1
2022-12-08T01:14:50.419Z,996.1
2022-12-08T01:15:51.482Z,996.1
2022-12-08T01:16:53.496Z,996.2
2022-12-08T01:17:55.460Z,996.1
2022-12-08T01:18:58.299Z,996.1
2022-12-08T01:20:00.421Z,996.2
2022-12-08T01:21:01.419Z,996.2
2022-12-08T01:22:02.399Z,996.1
2022-12-08T01:23:03.458Z,996.1
2022-12-08T01:24:04.659Z,996.1
2022-12-08T01:25:06.480Z,996.1
2022-12-08T01:26:08.958Z,996.1
2022-12-08T01:27:10.458Z,996.1
2022-12-08T01:28:12.478Z,996.2
2022-12-08T01:29:14.484Z,996.1
2022-12-08T01:30:16.478Z,996.1
2022-12-08T01:31:18.640Z,996
2022-12-08T01:32:20.439Z,996.1
2022-12-08T01:33:22.478Z,996.1
2022-12-08T01:34:24.458Z,996.1
2022-12-08T01:35:26.438Z,996.1
2022-12-08T01:36:28.504Z,996
2022-12-08T01:37:30.478Z,996.1
2022-12-08T01:38:32.431Z,996.1
2022-12-08T01:39:34.420Z,996.1
2022-12-08T01:40:36.438Z,996.1
2022-12-08T01:41:38.519Z,996
2022-12-08T01:42:40.501Z,996
2022-12-08T01:43:42.438Z,996
2022-12-08T01:44:44.621Z,996.1
2022-12-08T01:45:46.891Z,996
2022-12-08T01:46:48.451Z,996.1
2022-12-08T01:47:50.491Z,996.1
2022-12-08T01:48:51.392Z,996.1
2022-12-08T01:49:52.638Z,996.1
2022-12-08T01:50:54.458Z,996.1
2022-12-08T01:51:56.399Z,996.1
2022-12-08T01:52:58.038Z,996.1
2022-12-08T01:53:59.408Z,996.1
2022-12-08T01:55:00.474Z,996.1
2022-12-08T01:56:02.460Z,996.1
2022-12-08T01:57:04.441Z,996.1
2022-12-08T01:58:05.379Z,996.1
2022-12-08T01:59:06.390Z,996
2022-12-08T02:00:07.865Z,996.1
2022-12-08T02:01:09.472Z,996
2022-12-08T02:02:10.557Z,995.9
2022-12-08T02:03:11.560Z,996
2022-12-08T02:07:12.536Z,996
2022-12-08T02:08:14.493Z,996
2022-12-08T02:09:15.418Z,996
2022-12-08T02:10:16.358Z,996
2022-12-08T02:11:17.436Z,996
2022-12-08T02:12:18.417Z,996
2022-12-08T02:13:19.466Z,996.1
2022-12-08T02:14:20.416Z,996
2022-12-08T02:15:21.457Z,996
2022-12-08T02:16:22.485Z,996
2022-12-08T02:17:23.438Z,996
2022-12-08T02:18:24.461Z,996
2022-12-08T02:19:32.755Z,996
2022-12-08T02:20:27.457Z,996
2022-12-08T02:21:28.517Z,996
2022-12-08T02:22:30.696Z,996
2022-12-08T02:23:32.819Z,995.9
2022-12-08T02:24:34.838Z,996
2022-12-08T02:25:36.447Z,996
2022-12-08T02:26:38.537Z,996
2022-12-08T02:27:40.517Z,996
2022-12-08T02:28:42.440Z,996
2022-12-08T02:29:44.463Z,995.9
2022-12-08T02:30:47.008Z,996
2022-12-08T02:31:48.999Z,996
2022-12-08T02:32:50.506Z,996
2022-12-08T02:33:52.445Z,996
2022-12-08T02:34:54.417Z,995.3
2022-12-08T02:35:55.478Z,995.8
2022-12-08T02:36:56.477Z,996
2022-12-08T02:37:58.559Z,995.9
2022-12-08T02:39:00.937Z,996
2022-12-08T02:40:02.976Z,996
2022-12-08T02:41:03.447Z,996
2022-12-08T02:42:04.558Z,996
2022-12-08T02:43:06.452Z,996
2022-12-08T02:44:08.511Z,995.9
2022-12-08T02:45:11.224Z,996
2022-12-08T02:46:12.533Z,995.9
2022-12-08T02:47:14.558Z,995.9
2022-12-08T02:48:16.564Z,995.9
2022-12-08T02:49:18.477Z,995.9
2022-12-08T02:50:19.497Z,995.9
2022-12-08T02:51:20.456Z,995.9
2022-12-08T02:52:21.476Z,995.9
2022-12-08T02:53:23.396Z,995.9
2022-12-08T02:54:24.616Z,995.9
2022-12-08T02:55:26.795Z,995.9
2022-12-08T02:56:28.457Z,995.9
2022-12-08T02:57:30.457Z,995.9
2022-12-08T02:58:31.496Z,995.8
2022-12-08T02:59:33.517Z,995.9
2022-12-08T03:00:35.517Z,995.8
2022-12-08T03:01:37.556Z,995.8
2022-12-08T03:02:39.528Z,995.8
2022-12-08T03:03:41.527Z,995.8
2022-12-08T03:04:43.521Z,995.9
2022-12-08T03:05:45.499Z,995.8
2022-12-08T03:06:47.479Z,995.8
2022-12-08T03:07:48.555Z,995.8
2022-12-08T03:09:57.611Z,995.8
2022-12-08T03:10:59.637Z,995.8
2022-12-08T03:12:01.540Z,995.9
2022-12-08T03:13:03.499Z,995.9
2022-12-08T03:14:05.536Z,995.9
2022-12-08T03:15:07.577Z,995.8
2022-12-08T03:16:09.575Z,995.9
2022-12-08T03:17:11.977Z,995.8
2022-12-08T03:18:13.458Z,995.8
2022-12-08T03:19:15.549Z,995.8
2022-12-08T03:20:17.537Z,995.8
2022-12-08T03:21:19.505Z,995.8
2022-12-08T03:22:21.500Z,995.8
2022-12-08T03:23:23.690Z,995.8
2022-12-08T03:24:25.556Z,995.8
2022-12-08T03:25:27.577Z,995.8
2022-12-08T03:26:29.597Z,995.8
2022-12-08T03:27:31.536Z,995.7
2022-12-08T03:28:33.957Z,995.7
2022-12-08T03:29:35.699Z,995.7
2022-12-08T03:30:37.578Z,995.7
2022-12-08T03:31:39.575Z,995.7
2022-12-08T03:32:41.797Z,995.8
2022-12-08T03:33:43.446Z,995.7
2022-12-08T03:34:44.505Z,995.7
2022-12-08T03:35:46.438Z,995.7
2022-12-08T03:36:47.458Z,995.8
2022-12-08T03:37:48.580Z,995.7
2022-12-08T03:38:50.886Z,995.8
2022-12-08T03:39:52.899Z,995.8
2022-12-08T03:40:54.537Z,995.8
2022-12-08T03:41:56.495Z,995.8
2022-12-08T03:42:58.576Z,995.8
2022-12-08T03:44:00.499Z,995.7
2022-12-08T03:45:02.519Z,995.8
2022-12-08T03:46:03.531Z,995.8
2022-12-08T03:47:04.577Z,995.8
2022-12-08T03:48:06.536Z,995.8
2022-12-08T03:49:08.576Z,995.8
2022-12-08T03:50:10.521Z,995.9
2022-12-08T03:51:12.456Z,995.8
2022-12-08T03:52:15.166Z,995.8
2022-12-08T03:53:16.484Z,995.8
2022-12-08T03:54:18.540Z,995.9
2022-12-08T03:55:19.476Z,995.8
2022-12-08T03:56:20.497Z,995.9
2022-12-08T03:57:21.498Z,995.9
2022-12-08T03:58:23.478Z,995.8
2022-12-08T03:59:25.559Z,995.8
2022-12-08T04:00:27.517Z,995.8
2022-12-08T04:01:29.556Z,995.9
2022-12-08T04:02:31.868Z,995.8
2022-12-08T04:03:33.524Z,995.8
2022-12-08T04:04:35.538Z,995.9
2022-12-08T04:05:36.496Z,995.8
2022-12-08T04:06:37.560Z,995.8
2022-12-08T04:07:39.601Z,995.8
2022-12-08T04:08:41.516Z,995.7
2022-12-08T04:09:43.557Z,995.7
2022-12-08T04:10:45.518Z,995.7
2022-12-08T04:11:47.497Z,995.7
2022-12-08T04:12:48.565Z,995.7
2022-12-08T04:13:50.497Z,995.7
2022-12-08T04:14:51.517Z,995.7
2022-12-08T04:15:52.557Z,995.7
2022-12-08T04:16:55.057Z,995.7
2022-12-08T04:17:56.577Z,995.6
2022-12-08T04:18:58.538Z,995.7
2022-12-08T04:20:00.560Z,995.7
2022-12-08T04:21:02.550Z,995.7
2022-12-08T04:22:03.502Z,995.6
2022-12-08T04:23:04.516Z,995.6
2022-12-08T04:24:06.498Z,995.6
2022-12-08T04:25:07.547Z,995.6
2022-12-08T04:26:09.556Z,995.6
2022-12-08T04:27:11.777Z,995.5
2022-12-08T04:28:13.537Z,995.6
2022-12-08T04:29:16.078Z,995.5
2022-12-08T04:30:17.517Z,995.5
2022-12-08T04:31:19.564Z,995.5
2022-12-08T04:32:21.745Z,995.5
2022-12-08T04:33:23.557Z,995.5
2022-12-08T04:34:25.556Z,995.5
2022-12-08T04:35:27.596Z,995.5
2022-12-08T04:36:29.561Z,995.5
2022-12-08T04:37:31.515Z,995.4
2022-12-08T04:38:32.537Z,995.5
2022-12-08T04:39:33.558Z,995.6
2022-12-08T04:40:34.538Z,995.5
2022-12-08T04:41:36.499Z,995.5
2022-12-08T04:42:37.480Z,995.5
2022-12-08T04:43:39.536Z,995.5
2022-12-08T04:44:41.519Z,995.4
2022-12-08T04:45:43.621Z,995.5
2022-12-08T04:46:45.575Z,995.5
2022-12-08T04:47:47.485Z,995.4
2022-12-08T04:48:48.517Z,995.5
2022-12-08T04:49:51.057Z,995.4
2022-12-08T04:50:52.523Z,995.5
2022-12-08T04:51:53.585Z,995.5
2022-12-08T04:52:54.497Z,995.4
2022-12-08T04:53:55.496Z,995.4
2022-12-08T04:54:56.637Z,995.4
2022-12-08T04:55:58.496Z,995.4
2022-12-08T04:56:59.558Z,995.4
2022-12-08T04:58:01.564Z,995.4
2022-12-08T04:59:03.476Z,995.4
2022-12-08T05:00:04.950Z,995.4
2022-12-08T05:01:06.511Z,995.4
2022-12-08T05:02:07.659Z,995.4
2022-12-08T05:03:09.556Z,995.4
2022-12-08T05:04:11.756Z,995.4
2022-12-08T05:05:13.723Z,995.4
2022-12-08T05:06:15.536Z,995.4
2022-12-08T05:07:17.620Z,995.4
2022-12-08T05:08:19.598Z,995.4
2022-12-08T05:09:21.748Z,995.4
2022-12-08T05:10:23.897Z,995.4
2022-12-08T05:11:25.637Z,995.4
2022-12-08T05:12:27.537Z,995.4
2022-12-08T05:13:29.477Z,995.4
2022-12-08T05:14:30.522Z,995.4
2022-12-08T05:15:32.457Z,995.4
2022-12-08T05:16:33.680Z,995.3
2022-12-08T05:17:35.475Z,995.3
2022-12-08T05:18:36.537Z,995.3
2022-12-08T05:19:38.545Z,995.4
2022-12-08T05:20:40.557Z,995.3
2022-12-08T05:21:42.545Z,995.3
2022-12-08T05:22:44.584Z,995.3
2022-12-08T05:23:46.517Z,995.4
2022-12-08T05:24:48.761Z,995.4
2022-12-08T05:25:50.537Z,995.4
2022-12-08T05:26:52.616Z,995.4
2022-12-08T05:28:01.722Z,995.4
2022-12-08T05:28:56.580Z,995.3
2022-12-08T05:29:58.488Z,995.3
2022-12-08T05:30:59.517Z,995.2
2022-12-08T05:32:00.615Z,995.2
2022-12-08T05:33:01.497Z,995.2
2022-12-08T05:34:03.466Z,995.2
2022-12-08T05:35:03.520Z,995.3
2022-12-08T05:36:04.496Z,995.2
2022-12-08T05:37:05.536Z,995.2
2022-12-08T05:38:06.580Z,995.2
2022-12-08T05:39:07.857Z,995.2
2022-12-08T05:40:09.645Z,995.2
2022-12-08T05:41:11.817Z,995.2
2022-12-08T05:42:14.664Z,995.2
2022-12-08T05:43:17.146Z,995.2
2022-12-08T05:44:18.547Z,995.2
2022-12-08T05:45:20.519Z,995.2
2022-12-08T05:46:21.605Z,995.2
2022-12-08T05:47:22.498Z,995.2
2022-12-08T05:48:24.777Z,995.2
2022-12-08T05:49:26.616Z,995.2
2022-12-08T05:50:28.516Z,995.3
2022-12-08T05:51:30.538Z,995.2
2022-12-08T05:52:32.496Z,995.3
2022-12-08T05:53:33.605Z,995.3
2022-12-08T05:54:34.464Z,995.3
2022-12-08T05:55:35.501Z,995.3
2022-12-08T05:56:36.517Z,995.3
2022-12-08T05:57:37.526Z,995.3
2022-12-08T05:58:39.473Z,995.3
2022-12-08T05:59:41.596Z,995.2
2022-12-08T06:00:43.527Z,995.2
2022-12-08T06:01:45.623Z,994.8
2022-12-08T06:02:47.672Z,995.2
2022-12-08T06:03:49.536Z,995.2
2022-12-08T06:04:50.535Z,995.2
2022-12-08T06:05:51.539Z,995.2
2022-12-08T06:06:52.536Z,995.2
2022-12-08T06:07:53.669Z,995.2
2022-12-08T06:08:55.529Z,995.2
2022-12-08T06:09:56.556Z,995.1
2022-12-08T06:10:57.682Z,995.1
2022-12-08T06:12:00.120Z,995.2
2022-12-08T06:13:02.257Z,995.2
2022-12-08T06:14:03.596Z,995.2
2022-12-08T06:15:05.599Z,995.2
2022-12-08T06:16:08.134Z,995.2
2022-12-08T06:17:10.334Z,995.3
2022-12-08T06:18:12.333Z,995.2
2022-12-08T06:19:13.505Z,995.3
2022-12-08T06:20:14.499Z,995.2
2022-12-08T06:21:15.812Z,995.2
2022-12-08T06:22:18.114Z,995.2
2022-12-08T06:23:19.820Z,995.3
2022-12-08T06:24:21.589Z,995.2
2022-12-08T06:25:23.776Z,995.3
2022-12-08T06:26:25.561Z,995.3
2022-12-08T06:27:26.597Z,995.3
2022-12-08T06:28:27.557Z,995.2
2022-12-08T06:29:29.558Z,995.2
2022-12-08T06:30:30.857Z,995.2
2022-12-08T06:31:32.705Z,995.2
2022-12-08T06:32:35.084Z,995.2
2022-12-08T06:33:36.916Z,995.2
2022-12-08T06:34:39.449Z,995.2
2022-12-08T06:35:42.057Z,995.2
2022-12-08T06:36:44.277Z,995.1
2022-12-08T06:37:45.639Z,995.2
2022-12-08T06:38:47.576Z,995.2
2022-12-08T06:39:48.668Z,995.2
2022-12-08T06:40:51.179Z,995.3
2022-12-08T06:41:52.998Z,995.2
2022-12-08T06:42:54.616Z,995.5
2022-12-08T06:43:56.639Z,995.3
2022-12-08T06:44:58.557Z,995.3
2022-12-08T06:46:00.580Z,995.3
2022-12-08T06:47:01.584Z,994.6
2022-12-08T06:48:02.557Z,995.2
2022-12-08T06:49:03.636Z,995.3
2022-12-08T06:50:06.104Z,995.3
2022-12-08T06:51:08.111Z,995.3
2022-12-08T06:52:10.256Z,995.3
2022-12-08T06:53:11.907Z,995.3
2022-12-08T06:54:13.636Z,995.3
2022-12-08T06:55:35.254Z,995.3
2022-12-08T06:56:17.523Z,995.2
2022-12-08T06:57:18.556Z,995.3
2022-12-08T06:58:19.577Z,995.3
2022-12-08T06:59:20.576Z,995.3
2022-12-08T07:00:21.676Z,995.3
2022-12-08T07:01:23.827Z,995.2
2022-12-08T07:02:26.855Z,995.3
2022-12-08T07:03:28.897Z,995.3
2022-12-08T07:04:30.778Z,995.2
2022-12-08T07:05:32.797Z,995.3
2022-12-08T07:06:34.616Z,995.3
2022-12-08T07:07:36.671Z,995.3
2022-12-08T07:08:38.588Z,995.2
2022-12-08T07:09:40.537Z,995.3
2022-12-08T07:10:42.246Z,995.2
2022-12-08T07:11:43.598Z,995.3
2022-12-08T07:12:45.678Z,995.3
2022-12-08T07:13:47.596Z,995.3
2022-12-08T07:14:49.637Z,995.4
2022-12-08T07:15:51.687Z,995.3
2022-12-08T07:16:53.625Z,994.3
2022-12-08T07:17:59.722Z,995.1
2022-12-08T07:18:57.547Z,995.3
2022-12-08T07:19:59.178Z,995.4
2022-12-08T07:21:01.346Z,995.4
2022-12-08T07:22:02.679Z,995.3
2022-12-08T07:23:04.697Z,995.3
2022-12-08T07:24:07.737Z,995.3
2022-12-08T07:25:09.595Z,995.3
2022-12-08T07:26:11.972Z,995.3
2022-12-08T07:27:13.596Z,995.3
2022-12-08T07:28:15.597Z,995.3
2022-12-08T07:29:21.686Z,995.3
2022-12-08T07:30:19.600Z,995.3
2022-12-08T07:31:22.162Z,995.3
2022-12-08T07:32:23.556Z,995.3
2022-12-08T07:33:25.737Z,995.2
2022-12-08T07:34:28.277Z,995.3
2022-12-08T07:35:29.976Z,995.2
2022-12-08T07:36:32.356Z,995.3
2022-12-08T07:37:33.633Z,995.3
2022-12-08T07:38:34.606Z,995.3
2022-12-08T07:39:35.808Z,995.3
2022-12-08T07:40:37.623Z,995.3
2022-12-08T07:41:39.679Z,995.3
2022-12-08T07:42:41.598Z,995.3
2022-12-08T07:43:43.059Z,995.3
2022-12-08T07:44:45.257Z,995.3
2022-12-08T07:45:46.993Z,995.2
2022-12-08T07:46:48.658Z,995.3
2022-12-08T07:47:50.605Z,995.3
2022-12-08T07:48:52.397Z,995.3
2022-12-08T07:49:53.733Z,995.4
2022-12-08T07:50:55.617Z,995.4
2022-12-08T07:51:57.598Z,995.4
2022-12-08T07:52:58.925Z,995.4
2022-12-08T07:54:00.678Z,995.4
2022-12-08T07:55:03.095Z,995.4
2022-12-08T07:56:04.646Z,995.4
2022-12-08T07:57:06.646Z,995.4
2022-12-08T07:58:08.377Z,995.4
2022-12-08T07:59:10.699Z,995.4
2022-12-08T08:00:12.617Z,995.4
2022-12-08T08:01:13.741Z,995.4
2022-12-08T08:02:23.923Z,995.4
2022-12-08T08:03:17.144Z,995.4
2022-12-08T08:04:18.673Z,995.3
2022-12-08T08:05:19.666Z,995.3
2022-12-08T08:06:21.957Z,995.4
2022-12-08T08:07:23.637Z,995.3
2022-12-08T08:08:25.728Z,995.4
2022-12-08T08:09:27.677Z,995.4
2022-12-08T08:10:29.599Z,995.3
2022-12-08T08:11:30.615Z,995.4
2022-12-08T08:12:32.866Z,995.4
2022-12-08T08:13:33.718Z,995.4
2022-12-08T08:14:36.857Z,995.4
2022-12-08T08:15:40.169Z,995.4
2022-12-08T08:16:41.734Z,995.4
2022-12-08T08:17:44.016Z,995.4
2022-12-08T08:18:45.737Z,995.4
2022-12-08T08:19:48.496Z,995.3
2022-12-08T08:20:49.917Z,995.4
2022-12-08T08:21:51.678Z,995.3
2022-12-08T08:22:53.654Z,993.9
2022-12-08T08:23:55.678Z,995
2022-12-08T08:24:57.597Z,995.3
2022-12-08T08:25:58.622Z,995.3
2022-12-08T08:27:00.597Z,995.3
2022-12-08T08:28:01.845Z,995.4
2022-12-08T08:29:04.290Z,995.4
2022-12-08T08:30:05.864Z,995.4
2022-12-08T08:31:08.011Z,995.3
2022-12-08T08:32:09.657Z,995.3
2022-12-08T08:33:11.117Z,995.4
2022-12-08T08:34:12.657Z,995.4
2022-12-08T08:35:14.682Z,995.4
2022-12-08T08:36:16.696Z,995.4
2022-12-08T08:37:18.689Z,995.4
2022-12-08T08:38:19.677Z,994.7
2022-12-08T08:39:21.625Z,995.1
2022-12-08T08:40:22.659Z,995.3
2022-12-08T08:41:24.638Z,995.4
2022-12-08T08:42:26.696Z,995.4
2022-12-08T08:43:32.893Z,995.3
2022-12-08T08:44:30.611Z,995.3
2022-12-08T08:45:31.677Z,995.3
2022-12-08T08:46:33.123Z,995.3
2022-12-08T08:47:34.630Z,995.3
2022-12-08T08:48:35.871Z,995.2
2022-12-08T08:49:37.941Z,995.3
2022-12-08T08:50:39.641Z,995.3
2022-12-08T08:51:40.647Z,995.2
2022-12-08T08:52:41.818Z,995.2
2022-12-08T08:53:43.658Z,995.2
2022-12-08T08:54:44.585Z,995.3
2022-12-08T08:55:45.839Z,995.2
2022-12-08T08:56:48.202Z,995.2
2022-12-08T08:57:49.618Z,995.1
2022-12-08T08:58:51.617Z,995.1
2022-12-08T08:59:52.637Z,995.2
2022-12-08T09:00:54.578Z,995.2
2022-12-08T09:01:55.833Z,995.2
2022-12-08T09:02:57.606Z,995.1
2022-12-08T09:03:58.681Z,995.1
2022-12-08T09:05:00.759Z,995.2
2022-12-08T09:06:02.985Z,995.1
2022-12-08T09:07:04.704Z,995.1
2022-12-08T09:08:07.522Z,995.1
2022-12-08T09:09:08.737Z,995.1
2022-12-08T09:10:11.618Z,995.1
2022-12-08T09:11:13.097Z,995.1
2022-12-08T09:12:14.678Z,995.1
2022-12-08T09:13:16.717Z,995
2022-12-08T09:14:18.708Z,995.1
2022-12-08T09:15:20.658Z,995
2022-12-08T09:16:23.058Z,995.1
2022-12-08T09:17:24.637Z,995
2022-12-08T09:18:25.678Z,995.1
2022-12-08T09:19:26.680Z,995.1
2022-12-08T09:20:28.858Z,995.1
2022-12-08T09:21:30.657Z,995.1
2022-12-08T09:22:32.378Z,995.1
2022-12-08T09:23:35.515Z,995.1
2022-12-08T09:24:36.846Z,995
2022-12-08T09:25:38.657Z,995.1
2022-12-08T09:26:39.647Z,995.1
2022-12-08T09:27:40.637Z,995
2022-12-08T09:28:41.666Z,995.1
2022-12-08T09:29:43.784Z,995
2022-12-08T09:30:45.677Z,995
2022-12-08T09:31:48.415Z,995
2022-12-08T09:32:49.746Z,995
2022-12-08T09:33:51.983Z,995
2022-12-08T09:34:53.965Z,995
2022-12-08T09:35:56.318Z,995
2022-12-08T09:36:57.638Z,995
2022-12-08T09:37:58.625Z,995
2022-12-08T09:38:59.619Z,995
2022-12-08T09:40:00.701Z,995
2022-12-08T09:41:02.914Z,995
2022-12-08T09:42:06.058Z,995
2022-12-08T09:43:08.229Z,995
2022-12-08T09:44:09.685Z,995
2022-12-08T09:45:11.730Z,995
2022-12-08T09:46:13.475Z,995
2022-12-08T09:47:14.663Z,994.9
2022-12-08T09:48:15.697Z,994.9
2022-12-08T09:49:17.779Z,994.9
2022-12-08T09:50:19.897Z,994.9
2022-12-08T09:51:21.788Z,994.9
2022-12-08T09:52:23.705Z,994.9
2022-12-08T09:53:28.301Z,994.9
2022-12-08T09:54:27.958Z,994.9
2022-12-08T09:55:29.658Z,994.9
2022-12-08T09:56:31.758Z,994.9
2022-12-08T09:57:33.697Z,995
2022-12-08T09:58:35.587Z,995
2022-12-08T09:59:36.680Z,994.9
2022-12-08T10:00:38.851Z,994.9
2022-12-08T10:01:40.617Z,994.9
2022-12-08T10:02:42.637Z,994.9
2022-12-08T10:03:44.638Z,994.9
2022-12-08T10:04:45.892Z,994.9
2022-12-08T10:05:47.757Z,994.9
2022-12-08T10:06:49.621Z,994.9
2022-12-08T10:07:50.787Z,994.8
2022-12-08T10:08:53.044Z,994.9
2022-12-08T10:09:54.732Z,994.9
2022-12-08T10:10:56.757Z,994.8
2022-12-08T10:11:58.674Z,994.9
2022-12-08T10:13:01.428Z,994.9
2022-12-08T10:14:02.878Z,994.8
2022-12-08T10:15:04.752Z,994.8
2022-12-08T10:16:07.419Z,994.8
2022-12-08T10:17:08.741Z,994.8
2022-12-08T10:18:10.717Z,994.1
2022-12-08T10:19:13.358Z,994.7
2022-12-08T10:20:15.034Z,994.8
2022-12-08T10:21:16.818Z,994.7
2022-12-08T10:22:18.758Z,994.8
2022-12-08T10:23:20.793Z,994.7
2022-12-08T10:24:23.486Z,994.7
2022-12-08T10:25:24.659Z,994.7
2022-12-08T10:26:26.715Z,994.7
2022-12-08T10:27:28.826Z,994.8
2022-12-08T10:28:30.760Z,994.7
2022-12-08T10:29:32.937Z,994.6
2022-12-08T10:30:34.658Z,994.6
2022-12-08T10:31:35.741Z,994.6
2022-12-08T10:32:37.154Z,994.6
2022-12-08T10:33:39.018Z,994.7
2022-12-08T10:34:40.777Z,994.6
2022-12-08T10:35:42.745Z,994.6
2022-12-08T10:36:44.736Z,994.6
2022-12-08T10:37:47.061Z,994.6
2022-12-08T10:38:48.658Z,994.7
2022-12-08T10:39:50.277Z,994.6
2022-12-08T10:40:51.706Z,994.6
2022-12-08T10:41:53.718Z,994.6
2022-12-08T10:42:55.461Z,994.6
2022-12-08T10:43:57.460Z,994.6
2022-12-08T10:44:58.783Z,994.5
2022-12-08T10:46:00.959Z,994.5
2022-12-08T10:47:02.832Z,994.5
2022-12-08T10:48:04.902Z,994.5
2022-12-08T10:49:06.756Z,994.5
2022-12-08T10:50:08.798Z,994.5
2022-12-08T10:51:10.718Z,994.5
2022-12-08T10:52:13.476Z,994.5
2022-12-08T10:53:15.178Z,994.5
2022-12-08T10:54:21.838Z,994.5
2022-12-08T10:55:18.661Z,994.5
2022-12-08T10:56:19.718Z,994.6
2022-12-08T10:57:21.717Z,994.6
2022-12-08T10:58:23.717Z,994.5
2022-12-08T10:59:26.000Z,994.5
2022-12-08T11:00:28.051Z,994.5
2022-12-08T11:01:29.839Z,994.6
2022-12-08T11:02:31.781Z,994.4
2022-12-08T11:03:32.767Z,994.4
2022-12-08T11:04:34.720Z,994.4
2022-12-08T11:05:36.721Z,994.5
2022-12-08T11:06:38.705Z,994.5
2022-12-08T11:07:40.820Z,994.5
2022-12-08T11:08:42.822Z,994.5
2022-12-08T11:09:44.736Z,994.5
2022-12-08T11:10:46.683Z,994.5
2022-12-08T11:11:48.737Z,994.5
2022-12-08T11:12:50.739Z,994.5
2022-12-08T11:13:53.405Z,994.3
2022-12-08T11:14:54.708Z,994.4
2022-12-08T11:15:56.820Z,994.4
2022-12-08T11:16:58.818Z,994.4
2022-12-08T11:18:00.709Z,994.4
2022-12-08T11:19:01.776Z,994.3
2022-12-08T11:20:04.382Z,994.4
2022-12-08T11:21:06.338Z,994.4
2022-12-08T11:22:08.099Z,994.5
2022-12-08T11:23:09.720Z,994.4
2022-12-08T11:24:11.817Z,994.3
2022-12-08T11:25:13.758Z,994.4
2022-12-08T11:26:16.184Z,994.4
2022-12-08T11:27:17.902Z,994.4
2022-12-08T11:28:19.998Z,994.3
2022-12-08T11:29:21.698Z,994.3
2022-12-08T11:30:22.738Z,994.3
2022-12-08T11:31:23.774Z,994.3
2022-12-08T11:32:25.883Z,994.3
2022-12-08T11:33:28.047Z,994.4
2022-12-08T11:34:29.857Z,994.4
2022-12-08T11:35:32.157Z,994.4
2022-12-08T11:36:33.777Z,994.4
2022-12-08T11:37:35.787Z,994.3
2022-12-08T11:38:37.777Z,994.3
2022-12-08T11:39:39.717Z,994.4
2022-12-08T11:40:42.377Z,994.4
2022-12-08T11:41:44.775Z,994.4
2022-12-08T11:42:47.221Z,994.3
2022-12-08T11:43:48.897Z,994.5
2022-12-08T11:44:50.782Z,994.3
2022-12-08T11:45:53.063Z,994.3
2022-12-08T11:46:54.766Z,994.3
2022-12-08T11:47:56.771Z,994.3
2022-12-08T11:49:02.710Z,994.3
2022-12-08T11:50:01.808Z,994.3
2022-12-08T11:51:03.237Z,994.3
2022-12-08T11:52:04.759Z,994.3
2022-12-08T11:53:06.759Z,994.4
2022-12-08T11:54:08.697Z,994.3
2022-12-08T11:55:10.776Z,994.2
2022-12-08T11:56:13.237Z,994.3
2022-12-08T11:57:15.318Z,994.3
2022-12-08T11:58:17.152Z,994.3
2022-12-08T11:59:18.679Z,994.3
2022-12-08T12:00:19.816Z,994.3
2022-12-08T12:01:21.837Z,994.3
2022-12-08T12:02:24.671Z,994.3
2022-12-08T12:03:25.807Z,994.3
2022-12-08T12:04:27.923Z,994.3
2022-12-08T12:06:09.067Z,994.3
2022-12-08T12:06:46.784Z,994.3
2022-12-08T12:07:33.738Z,994.2
2022-12-08T12:08:34.776Z,994.2
2022-12-08T12:09:36.737Z,994.1
2022-12-08T12:10:38.814Z,994
2022-12-08T12:11:40.729Z,994
2022-12-08T12:12:42.783Z,994
2022-12-08T12:13:44.677Z,993.3
2022-12-08T12:14:46.556Z,993.9
2022-12-08T12:15:47.899Z,994
2022-12-08T12:16:49.815Z,994
2022-12-08T12:17:52.098Z,994.1
2022-12-08T12:18:54.098Z,994.1
2022-12-08T12:19:55.900Z,994.2
2022-12-08T12:20:57.856Z,994.2
2022-12-08T12:22:00.244Z,994.2
2022-12-08T12:23:01.645Z,994.2
2022-12-08T12:24:03.866Z,994.1
2022-12-08T12:25:06.080Z,994.2
2022-12-08T12:26:07.936Z,994.2
2022-12-08T12:27:09.772Z,994.1
2022-12-08T12:28:11.798Z,994.1
2022-12-08T12:29:13.971Z,994.2
2022-12-08T12:30:15.750Z,994.2
2022-12-08T12:31:17.808Z,994.2
2022-12-08T12:32:19.737Z,994.1
2022-12-08T12:33:21.797Z,994.2
2022-12-08T12:34:24.696Z,994.2
2022-12-08T12:35:27.410Z,994.1
2022-12-08T12:36:28.344Z,994.1
2022-12-08T12:37:29.902Z,994.1
2022-12-08T12:38:31.798Z,994.1
2022-12-08T12:39:33.765Z,994.1
2022-12-08T12:40:34.999Z,994.1
2022-12-08T12:41:36.857Z,994.1
2022-12-08T12:42:38.774Z,994.1
2022-12-08T12:43:41.138Z,994.1
2022-12-08T12:44:42.825Z,994.1
2022-12-08T12:45:45.085Z,994.1
2022-12-08T12:46:46.817Z,994.1
2022-12-08T12:47:54.253Z,994.1
2022-12-08T12:48:51.328Z,994.1
2022-12-08T12:49:52.770Z,994.1
2022-12-08T12:50:54.851Z,994.1
2022-12-08T12:51:55.697Z,994.1
2022-12-08T12:52:56.737Z,994.1
2022-12-08T12:53:58.100Z,994.1
2022-12-08T12:54:59.857Z,994
2022-12-08T12:56:01.746Z,994
2022-12-08T12:57:03.717Z,994
2022-12-08T12:58:05.137Z,994
2022-12-08T12:59:06.805Z,994
2022-12-08T13:00:09.097Z,994
2022-12-08T13:01:11.024Z,994
2022-12-08T13:02:13.409Z,994
2022-12-08T13:03:15.417Z,994
2022-12-08T13:04:17.175Z,994
2022-12-08T13:05:19.286Z,994
2022-12-08T13:06:21.169Z,994
2022-12-08T13:07:23.276Z,994
2022-12-08T13:08:25.010Z,993.9
2022-12-08T13:09:26.857Z,993.9
2022-12-08T13:10:28.936Z,993.9
2022-12-08T13:11:30.858Z,993.8
2022-12-08T13:12:33.457Z,993.9
2022-12-08T13:13:35.779Z,993.9
2022-12-08T13:14:37.861Z,993.9
2022-12-08T13:15:39.757Z,993.8
2022-12-08T13:16:41.832Z,993.3
2022-12-08T13:17:43.816Z,993.7
2022-12-08T13:18:47.220Z,993.8
2022-12-08T13:19:51.836Z,993.9
2022-12-08T13:20:50.906Z,993.9
2022-12-08T13:21:52.921Z,993.9
2022-12-08T13:22:55.357Z,993.8
2022-12-08T13:23:56.849Z,993.8
2022-12-08T13:24:58.848Z,993.8
2022-12-08T13:26:00.737Z,993.9